sensor_id;sensor_type;location;lat;lon;timestamp;temperature;humidity
25208;DHT22;13153;52.316;21.166;2022-09-13T00:01:29;10.70;99.90
25208;DHT22;13153;52.316;21.166;2022-09-13T00:03:55;10.70;99.90
25208;DHT22;13153;52.316;21.166;2022-09-13T00:06:21;10.70;99.90
25208;DHT22;13153;52.316;21.166;2022-09-13T00:08:48;10.60;99.90
25208;DHT22;13153;52.316;21.166;2022-09-13T00:11:17;10.60;99.90
25208;DHT22;13153;52.316;21.166;2022-09-13T00:13:45;10.60;99.90
25208;DHT22;13153;52.316;21.166;2022-09-13T00:16:13;10.50;99.90
25208;DHT22;13153;52.316;21.166;2022-09-13T00:18:40;10.50;99.90
25208;DHT22;13153;52.316;21.166;2022-09-13T00:21:12;10.50;99.90
25208;DHT22;13153;52.316;21.166;2022-09-13T00:23:43;10.50;99.90
25208;DHT22;13153;52.316;21.166;2022-09-13T00:26:14;10.40;99.90
25208;DHT22;13153;52.316;21.166;2022-09-13T00:28:43;10.40;99.90
25208;DHT22;13153;52.316;21.166;2022-09-13T00:31:12;10.40;99.90
25208;DHT22;13153;52.316;21.166;2022-09-13T00:33:38;10.30;99.90
25208;DHT22;13153;52.316;21.166;2022-09-13T00:36:06;10.30;99.90
25208;DHT22;13153;52.316;21.166;2022-09-13T00:38:43;10.20;99.90
25208;DHT22;13153;52.316;21.166;2022-09-13T00:41:10;10.20;99.90
25208;DHT22;13153;52.316;21.166;2022-09-13T00:43:50;10.20;99.90
25208;DHT22;13153;52.316;21.166;2022-09-13T00:46:31;10.10;99.90
25208;DHT22;13153;52.316;21.166;2022-09-13T00:49:06;10.10;99.90
25208;DHT22;13153;52.316;21.166;2022-09-13T00:51:34;10.00;99.90
25208;DHT22;13153;52.316;21.166;2022-09-13T00:54:01;10.00;99.90
25208;DHT22;13153;52.316;21.166;2022-09-13T00:56:32;10.00;99.90
25208;DHT22;13153;52.316;21.166;2022-09-13T00:59:12;9.90;99.90
25208;DHT22;13153;52.316;21.166;2022-09-13T01:01:47;9.90;99.90
25208;DHT22;13153;52.316;21.166;2022-09-13T01:04:18;9.90;99.90
25208;DHT22;13153;52.316;21.166;2022-09-13T01:06:47;9.90;99.90
25208;DHT22;13153;52.316;21.166;2022-09-13T01:09:15;9.80;99.90
25208;DHT22;13153;52.316;21.166;2022-09-13T01:14:13;9.80;99.90
25208;DHT22;13153;52.316;21.166;2022-09-13T01:16:41;9.80;99.90
25208;DHT22;13153;52.316;21.166;2022-09-13T01:19:06;9.70;99.90
25208;DHT22;13153;52.316;21.166;2022-09-13T01:30:24;9.60;99.90
25208;DHT22;13153;52.316;21.166;2022-09-13T01:36:23;9.50;99.90
25208;DHT22;13153;52.316;21.166;2022-09-13T01:39:15;9.40;99.90
25208;DHT22;13153;52.316;21.166;2022-09-13T01:50:33;9.10;99.90
25208;DHT22;13153;52.316;21.166;2022-09-13T01:58:57;8.90;99.90
25208;DHT22;13153;52.316;21.166;2022-09-13T02:01:39;8.90;99.90
25208;DHT22;13153;52.316;21.166;2022-09-13T02:04:23;8.80;99.90
25208;DHT22;13153;52.316;21.166;2022-09-13T02:07:03;8.80;99.90
25208;DHT22;13153;52.316;21.166;2022-09-13T02:09:37;8.80;99.90
25208;DHT22;13153;52.316;21.166;2022-09-13T02:12:19;8.80;99.90
25208;DHT22;13153;52.316;21.166;2022-09-13T02:15:14;8.80;99.90
25208;DHT22;13153;52.316;21.166;2022-09-13T02:20:34;8.80;99.90
25208;DHT22;13153;52.316;21.166;2022-09-13T02:23:09;8.80;99.90
25208;DHT22;13153;52.316;21.166;2022-09-13T02:25:48;8.80;99.90
25208;DHT22;13153;52.316;21.166;2022-09-13T02:28:21;8.80;99.90
25208;DHT22;13153;52.316;21.166;2022-09-13T02:30:53;8.80;99.90
25208;DHT22;13153;52.316;21.166;2022-09-13T02:33:34;8.70;99.90
25208;DHT22;13153;52.316;21.166;2022-09-13T02:36:15;8.70;99.90
25208;DHT22;13153;52.316;21.166;2022-09-13T02:38:52;8.60;99.90
25208;DHT22;13153;52.316;21.166;2022-09-13T02:41:29;8.60;99.90
25208;DHT22;13153;52.316;21.166;2022-09-13T02:44:30;8.60;99.90
25208;DHT22;13153;52.316;21.166;2022-09-13T02:47:18;8.60;99.90
25208;DHT22;13153;52.316;21.166;2022-09-13T02:56:20;8.60;99.90
25208;DHT22;13153;52.316;21.166;2022-09-13T03:01:38;8.60;99.90
25208;DHT22;13153;52.316;21.166;2022-09-13T03:04:06;8.60;99.90
25208;DHT22;13153;52.316;21.166;2022-09-13T03:06:32;8.50;99.90
25208;DHT22;13153;52.316;21.166;2022-09-13T03:09:00;8.50;99.90
25208;DHT22;13153;52.316;21.166;2022-09-13T03:17:53;8.50;99.90
25208;DHT22;13153;52.316;21.166;2022-09-13T03:21:00;8.50;99.90
25208;DHT22;13153;52.316;21.166;2022-09-13T03:24:07;8.50;99.90
25208;DHT22;13153;52.316;21.166;2022-09-13T03:27:05;8.50;99.90
25208;DHT22;13153;52.316;21.166;2022-09-13T03:30:07;8.40;99.90
25208;DHT22;13153;52.316;21.166;2022-09-13T03:32:51;8.40;99.90
25208;DHT22;13153;52.316;21.166;2022-09-13T03:38:31;8.30;99.90
25208;DHT22;13153;52.316;21.166;2022-09-13T03:41:18;8.20;99.90
25208;DHT22;13153;52.316;21.166;2022-09-13T03:43:53;8.20;99.90
25208;DHT22;13153;52.316;21.166;2022-09-13T03:46:36;8.10;99.90
25208;DHT22;13153;52.316;21.166;2022-09-13T03:49:09;8.00;99.90
25208;DHT22;13153;52.316;21.166;2022-09-13T03:51:39;7.90;99.90
25208;DHT22;13153;52.316;21.166;2022-09-13T03:54:13;7.90;99.90
25208;DHT22;13153;52.316;21.166;2022-09-13T03:56:42;7.90;99.90
25208;DHT22;13153;52.316;21.166;2022-09-13T03:59:08;7.90;99.90
25208;DHT22;13153;52.316;21.166;2022-09-13T04:01:33;7.80;99.90
25208;DHT22;13153;52.316;21.166;2022-09-13T04:03:59;7.80;99.90
25208;DHT22;13153;52.316;21.166;2022-09-13T04:06:25;7.80;99.90
25208;DHT22;13153;52.316;21.166;2022-09-13T04:08:50;7.80;99.90
25208;DHT22;13153;52.316;21.166;2022-09-13T04:11:16;7.90;99.90
25208;DHT22;13153;52.316;21.166;2022-09-13T04:13:42;7.80;99.90
25208;DHT22;13153;52.316;21.166;2022-09-13T04:16:08;7.80;99.90
25208;DHT22;13153;52.316;21.166;2022-09-13T04:18:34;7.80;99.90
25208;DHT22;13153;52.316;21.166;2022-09-13T04:21:01;7.90;99.90
25208;DHT22;13153;52.316;21.166;2022-09-13T04:23:29;7.80;99.90
25208;DHT22;13153;52.316;21.166;2022-09-13T04:26:00;7.80;99.90
25208;DHT22;13153;52.316;21.166;2022-09-13T04:28:27;7.90;99.90
25208;DHT22;13153;52.316;21.166;2022-09-13T04:30:53;7.90;99.90
25208;DHT22;13153;52.316;21.166;2022-09-13T04:33:19;7.90;99.90
25208;DHT22;13153;52.316;21.166;2022-09-13T04:35:44;7.90;99.90
25208;DHT22;13153;52.316;21.166;2022-09-13T04:38:10;8.00;99.90
25208;DHT22;13153;52.316;21.166;2022-09-13T04:40:36;8.10;99.90
25208;DHT22;13153;52.316;21.166;2022-09-13T04:43:02;8.10;99.90
25208;DHT22;13153;52.316;21.166;2022-09-13T04:45:28;8.10;99.90
25208;DHT22;13153;52.316;21.166;2022-09-13T04:47:55;8.20;99.90
25208;DHT22;13153;52.316;21.166;2022-09-13T04:50:22;8.20;99.90
25208;DHT22;13153;52.316;21.166;2022-09-13T04:52:50;8.30;99.90
25208;DHT22;13153;52.316;21.166;2022-09-13T04:55:19;8.40;99.90
25208;DHT22;13153;52.316;21.166;2022-09-13T04:57:45;8.50;99.90
25208;DHT22;13153;52.316;21.166;2022-09-13T05:00:11;8.60;99.90
25208;DHT22;13153;52.316;21.166;2022-09-13T05:02:37;8.70;99.90
25208;DHT22;13153;52.316;21.166;2022-09-13T05:05:02;8.80;99.90
25208;DHT22;13153;52.316;21.166;2022-09-13T05:07:29;8.90;99.90
25208;DHT22;13153;52.316;21.166;2022-09-13T05:09:55;9.00;99.90
25208;DHT22;13153;52.316;21.166;2022-09-13T05:12:20;9.00;99.90
25208;DHT22;13153;52.316;21.166;2022-09-13T05:14:46;9.10;99.90
25208;DHT22;13153;52.316;21.166;2022-09-13T05:17:12;9.10;99.90
25208;DHT22;13153;52.316;21.166;2022-09-13T05:19:37;9.10;99.90
25208;DHT22;13153;52.316;21.166;2022-09-13T05:22:03;9.20;99.90
25208;DHT22;13153;52.316;21.166;2022-09-13T05:24:29;9.20;99.90
25208;DHT22;13153;52.316;21.166;2022-09-13T05:26:54;9.20;99.90
25208;DHT22;13153;52.316;21.166;2022-09-13T05:29:20;9.20;99.90
25208;DHT22;13153;52.316;21.166;2022-09-13T05:31:46;9.30;99.90
25208;DHT22;13153;52.316;21.166;2022-09-13T05:34:16;9.50;99.90
25208;DHT22;13153;52.316;21.166;2022-09-13T05:36:44;9.50;99.90
25208;DHT22;13153;52.316;21.166;2022-09-13T05:39:15;9.60;99.90
25208;DHT22;13153;52.316;21.166;2022-09-13T05:41:46;9.80;99.90
25208;DHT22;13153;52.316;21.166;2022-09-13T05:44:12;10.00;99.90
25208;DHT22;13153;52.316;21.166;2022-09-13T05:46:38;10.10;99.90
25208;DHT22;13153;52.316;21.166;2022-09-13T05:49:03;10.10;99.90
25208;DHT22;13153;52.316;21.166;2022-09-13T05:51:29;10.20;99.90
25208;DHT22;13153;52.316;21.166;2022-09-13T05:53:56;10.40;99.90
25208;DHT22;13153;52.316;21.166;2022-09-13T05:56:26;10.50;99.90
25208;DHT22;13153;52.316;21.166;2022-09-13T05:58:53;10.50;99.90
25208;DHT22;13153;52.316;21.166;2022-09-13T06:01:22;10.60;99.90
25208;DHT22;13153;52.316;21.166;2022-09-13T06:03:52;10.70;99.90
25208;DHT22;13153;52.316;21.166;2022-09-13T06:06:20;10.70;99.90
25208;DHT22;13153;52.316;21.166;2022-09-13T06:08:51;10.80;99.90
25208;DHT22;13153;52.316;21.166;2022-09-13T06:11:18;11.00;99.90
25208;DHT22;13153;52.316;21.166;2022-09-13T06:13:43;11.20;99.90
25208;DHT22;13153;52.316;21.166;2022-09-13T06:16:11;11.30;99.90
25208;DHT22;13153;52.316;21.166;2022-09-13T06:18:38;11.50;99.90
25208;DHT22;13153;52.316;21.166;2022-09-13T06:21:09;11.60;99.90
25208;DHT22;13153;52.316;21.166;2022-09-13T06:23:42;11.80;99.90
25208;DHT22;13153;52.316;21.166;2022-09-13T06:26:26;11.90;99.90
25208;DHT22;13153;52.316;21.166;2022-09-13T06:28:55;12.10;99.90
25208;DHT22;13153;52.316;21.166;2022-09-13T06:31:23;12.30;99.90
25208;DHT22;13153;52.316;21.166;2022-09-13T06:33:59;12.50;99.90
25208;DHT22;13153;52.316;21.166;2022-09-13T06:36:27;12.60;99.90
25208;DHT22;13153;52.316;21.166;2022-09-13T06:38:52;12.70;99.90
25208;DHT22;13153;52.316;21.166;2022-09-13T06:41:20;12.70;99.90
25208;DHT22;13153;52.316;21.166;2022-09-13T06:43:55;12.80;99.90
25208;DHT22;13153;52.316;21.166;2022-09-13T06:46:27;12.80;99.90
25208;DHT22;13153;52.316;21.166;2022-09-13T06:48:54;12.80;99.90
25208;DHT22;13153;52.316;21.166;2022-09-13T06:51:24;12.90;99.90
25208;DHT22;13153;52.316;21.166;2022-09-13T06:53:51;13.10;99.90
25208;DHT22;13153;52.316;21.166;2022-09-13T06:56:32;13.20;99.90
25208;DHT22;13153;52.316;21.166;2022-09-13T06:59:01;13.20;99.90
25208;DHT22;13153;52.316;21.166;2022-09-13T07:01:34;13.20;99.90
25208;DHT22;13153;52.316;21.166;2022-09-13T07:04:07;13.20;99.90
25208;DHT22;13153;52.316;21.166;2022-09-13T07:06:37;13.20;99.90
25208;DHT22;13153;52.316;21.166;2022-09-13T07:09:06;13.30;99.90
25208;DHT22;13153;52.316;21.166;2022-09-13T07:11:37;13.20;99.90
25208;DHT22;13153;52.316;21.166;2022-09-13T07:14:05;13.30;99.90
25208;DHT22;13153;52.316;21.166;2022-09-13T07:16:33;13.20;99.90
25208;DHT22;13153;52.316;21.166;2022-09-13T07:19:06;13.30;99.90
25208;DHT22;13153;52.316;21.166;2022-09-13T07:21:36;13.40;99.90
25208;DHT22;13153;52.316;21.166;2022-09-13T07:24:02;13.50;99.90
25208;DHT22;13153;52.316;21.166;2022-09-13T07:26:28;13.60;99.90
25208;DHT22;13153;52.316;21.166;2022-09-13T07:28:57;13.70;99.90
25208;DHT22;13153;52.316;21.166;2022-09-13T07:31:28;13.90;99.90
25208;DHT22;13153;52.316;21.166;2022-09-13T07:33:57;14.10;99.90
25208;DHT22;13153;52.316;21.166;2022-09-13T07:36:25;14.50;99.90
25208;DHT22;13153;52.316;21.166;2022-09-13T07:38:52;15.00;99.90
25208;DHT22;13153;52.316;21.166;2022-09-13T07:41:20;15.60;99.90
25208;DHT22;13153;52.316;21.166;2022-09-13T07:43:47;16.20;99.90
25208;DHT22;13153;52.316;21.166;2022-09-13T07:46:21;16.90;99.90
25208;DHT22;13153;52.316;21.166;2022-09-13T07:48:51;17.40;99.90
25208;DHT22;13153;52.316;21.166;2022-09-13T07:51:20;17.80;99.90
25208;DHT22;13153;52.316;21.166;2022-09-13T07:53:51;18.10;99.90
25208;DHT22;13153;52.316;21.166;2022-09-13T07:56:22;18.30;99.90
25208;DHT22;13153;52.316;21.166;2022-09-13T07:58:50;18.30;99.90
25208;DHT22;13153;52.316;21.166;2022-09-13T08:01:24;18.40;99.90
25208;DHT22;13153;52.316;21.166;2022-09-13T08:03:55;18.40;99.90
25208;DHT22;13153;52.316;21.166;2022-09-13T08:06:27;18.50;99.90
25208;DHT22;13153;52.316;21.166;2022-09-13T08:08:55;18.50;99.90
25208;DHT22;13153;52.316;21.166;2022-09-13T08:11:24;18.60;99.90
25208;DHT22;13153;52.316;21.166;2022-09-13T08:13:53;18.50;99.90
25208;DHT22;13153;52.316;21.166;2022-09-13T08:16:21;18.60;99.90
25208;DHT22;13153;52.316;21.166;2022-09-13T08:18:53;18.60;99.90
25208;DHT22;13153;52.316;21.166;2022-09-13T08:21:22;18.40;99.90
25208;DHT22;13153;52.316;21.166;2022-09-13T08:23:49;18.20;99.90
25208;DHT22;13153;52.316;21.166;2022-09-13T08:26:18;18.00;99.90
25208;DHT22;13153;52.316;21.166;2022-09-13T08:28:44;17.90;99.90
25208;DHT22;13153;52.316;21.166;2022-09-13T08:31:11;17.70;99.90
25208;DHT22;13153;52.316;21.166;2022-09-13T08:33:43;17.70;99.90
25208;DHT22;13153;52.316;21.166;2022-09-13T08:36:10;17.80;99.90
25208;DHT22;13153;52.316;21.166;2022-09-13T08:38:36;17.90;99.90
25208;DHT22;13153;52.316;21.166;2022-09-13T08:41:04;18.10;99.90
25208;DHT22;13153;52.316;21.166;2022-09-13T08:44:16;18.20;99.90
25208;DHT22;13153;52.316;21.166;2022-09-13T08:49:41;18.60;99.90
25208;DHT22;13153;52.316;21.166;2022-09-13T08:52:29;18.70;99.90
25208;DHT22;13153;52.316;21.166;2022-09-13T08:55:03;18.80;99.90
25208;DHT22;13153;52.316;21.166;2022-09-13T08:58:27;18.80;99.90
25208;DHT22;13153;52.316;21.166;2022-09-13T09:01:29;18.80;99.90
25208;DHT22;13153;52.316;21.166;2022-09-13T09:06:41;18.70;99.90
25208;DHT22;13153;52.316;21.166;2022-09-13T09:09:15;18.60;99.90
25208;DHT22;13153;52.316;21.166;2022-09-13T09:11:55;18.60;99.90
25208;DHT22;13153;52.316;21.166;2022-09-13T09:14:38;18.60;99.90
25208;DHT22;13153;52.316;21.166;2022-09-13T09:17:23;18.70;99.90
25208;DHT22;13153;52.316;21.166;2022-09-13T09:20:44;18.80;99.90
25208;DHT22;13153;52.316;21.166;2022-09-13T09:26:13;19.00;99.90
25208;DHT22;13153;52.316;21.166;2022-09-13T09:28:42;18.80;99.90
25208;DHT22;13153;52.316;21.166;2022-09-13T09:31:20;18.70;99.90
25208;DHT22;13153;52.316;21.166;2022-09-13T09:34:21;18.70;99.90
25208;DHT22;13153;52.316;21.166;2022-09-13T09:39:59;18.80;99.90
25208;DHT22;13153;52.316;21.166;2022-09-13T09:42:31;18.80;99.90
25208;DHT22;13153;52.316;21.166;2022-09-13T09:45:35;18.70;99.90
25208;DHT22;13153;52.316;21.166;2022-09-13T09:48:07;18.50;99.90
25208;DHT22;13153;52.316;21.166;2022-09-13T09:50:46;18.40;99.90
25208;DHT22;13153;52.316;21.166;2022-09-13T09:53:22;18.30;99.90
25208;DHT22;13153;52.316;21.166;2022-09-13T09:56:05;18.30;99.90
25208;DHT22;13153;52.316;21.166;2022-09-13T09:58:37;18.30;99.90
25208;DHT22;13153;52.316;21.166;2022-09-13T10:04:39;18.10;99.90
25208;DHT22;13153;52.316;21.166;2022-09-13T10:06:41;18.00;99.90
25208;DHT22;13153;52.316;21.166;2022-09-13T10:09:21;18.10;99.90
25208;DHT22;13153;52.316;21.166;2022-09-13T10:11:53;18.10;99.90
25208;DHT22;13153;52.316;21.166;2022-09-13T10:14:43;18.00;99.90
25208;DHT22;13153;52.316;21.166;2022-09-13T10:17:25;18.00;99.90
25208;DHT22;13153;52.316;21.166;2022-09-13T10:22:23;18.10;99.90
25208;DHT22;13153;52.316;21.166;2022-09-13T10:24:49;18.20;99.90
25208;DHT22;13153;52.316;21.166;2022-09-13T10:27:25;18.30;99.90
25208;DHT22;13153;52.316;21.166;2022-09-13T10:29:58;18.40;99.90
25208;DHT22;13153;52.316;21.166;2022-09-13T10:32:27;18.40;99.90
25208;DHT22;13153;52.316;21.166;2022-09-13T10:35:05;18.50;99.90
25208;DHT22;13153;52.316;21.166;2022-09-13T10:37:42;18.50;99.90
25208;DHT22;13153;52.316;21.166;2022-09-13T10:40:20;18.50;99.90
25208;DHT22;13153;52.316;21.166;2022-09-13T10:42:57;18.40;99.90
25208;DHT22;13153;52.316;21.166;2022-09-13T10:45:28;18.50;99.90
25208;DHT22;13153;52.316;21.166;2022-09-13T10:48:11;18.50;99.90
25208;DHT22;13153;52.316;21.166;2022-09-13T10:50:40;18.40;99.90
25208;DHT22;13153;52.316;21.166;2022-09-13T10:56:03;18.30;99.90
25208;DHT22;13153;52.316;21.166;2022-09-13T10:58:30;18.40;99.90
25208;DHT22;13153;52.316;21.166;2022-09-13T11:06:58;18.10;99.90
25208;DHT22;13153;52.316;21.166;2022-09-13T11:12:55;18.00;99.90
25208;DHT22;13153;52.316;21.166;2022-09-13T11:18:25;17.90;99.90
25208;DHT22;13153;52.316;21.166;2022-09-13T11:47:21;17.90;99.90
25208;DHT22;13153;52.316;21.166;2022-09-13T11:53:39;17.80;99.90
25208;DHT22;13153;52.316;21.166;2022-09-13T11:56:27;17.80;99.90
25208;DHT22;13153;52.316;21.166;2022-09-13T12:01:51;17.80;99.90
25208;DHT22;13153;52.316;21.166;2022-09-13T12:04:32;17.80;99.90
25208;DHT22;13153;52.316;21.166;2022-09-13T12:07:10;17.80;99.90
25208;DHT22;13153;52.316;21.166;2022-09-13T12:12:56;17.80;99.90
25208;DHT22;13153;52.316;21.166;2022-09-13T12:15:34;17.80;99.90
25208;DHT22;13153;52.316;21.166;2022-09-13T12:18:47;17.90;99.90
25208;DHT22;13153;52.316;21.166;2022-09-13T12:21:20;17.80;99.90
25208;DHT22;13153;52.316;21.166;2022-09-13T12:24:20;17.90;99.90
25208;DHT22;13153;52.316;21.166;2022-09-13T12:29:52;18.00;99.90
25208;DHT22;13153;52.316;21.166;2022-09-13T12:32:21;18.00;99.90
25208;DHT22;13153;52.316;21.166;2022-09-13T12:38:11;17.90;99.90
25208;DHT22;13153;52.316;21.166;2022-09-13T12:58:26;17.50;99.90
25208;DHT22;13153;52.316;21.166;2022-09-13T13:03:30;17.40;99.90
25208;DHT22;13153;52.316;21.166;2022-09-13T13:06:28;17.30;99.90
25208;DHT22;13153;52.316;21.166;2022-09-13T13:09:01;17.20;99.90
25208;DHT22;13153;52.316;21.166;2022-09-13T13:11:42;17.20;99.90
25208;DHT22;13153;52.316;21.166;2022-09-13T13:20:38;17.10;99.90
25208;DHT22;13153;52.316;21.166;2022-09-13T13:23:37;17.10;99.90
25208;DHT22;13153;52.316;21.166;2022-09-13T13:29:33;16.90;99.90
25208;DHT22;13153;52.316;21.166;2022-09-13T13:34:32;16.90;99.90
25208;DHT22;13153;52.316;21.166;2022-09-13T13:37:27;16.80;99.90
25208;DHT22;13153;52.316;21.166;2022-09-13T13:40:19;16.80;99.90
25208;DHT22;13153;52.316;21.166;2022-09-13T13:42:55;16.70;99.90
25208;DHT22;13153;52.316;21.166;2022-09-13T13:48:45;16.70;99.90
25208;DHT22;13153;52.316;21.166;2022-09-13T13:51:17;16.70;99.90
25208;DHT22;13153;52.316;21.166;2022-09-13T13:53:47;16.70;99.90
25208;DHT22;13153;52.316;21.166;2022-09-13T13:56:34;16.60;99.90
25208;DHT22;13153;52.316;21.166;2022-09-13T13:59:12;16.60;99.90
25208;DHT22;13153;52.316;21.166;2022-09-13T14:01:47;16.60;99.90
25208;DHT22;13153;52.316;21.166;2022-09-13T14:10:41;16.70;99.90
25208;DHT22;13153;52.316;21.166;2022-09-13T14:16:07;16.80;99.90
25208;DHT22;13153;52.316;21.166;2022-09-13T14:18:46;16.90;99.90
25208;DHT22;13153;52.316;21.166;2022-09-13T14:23:49;17.00;99.90
25208;DHT22;13153;52.316;21.166;2022-09-13T14:26:15;17.00;99.90
25208;DHT22;13153;52.316;21.166;2022-09-13T14:28:41;17.00;99.90
25208;DHT22;13153;52.316;21.166;2022-09-13T14:31:16;16.90;99.90
25208;DHT22;13153;52.316;21.166;2022-09-13T14:33:44;16.80;99.90
25208;DHT22;13153;52.316;21.166;2022-09-13T14:36:19;16.80;99.90
25208;DHT22;13153;52.316;21.166;2022-09-13T14:38:56;16.80;99.90
25208;DHT22;13153;52.316;21.166;2022-09-13T14:41:36;16.80;99.90
25208;DHT22;13153;52.316;21.166;2022-09-13T14:44:20;16.80;99.90
25208;DHT22;13153;52.316;21.166;2022-09-13T14:47:01;16.80;99.90
25208;DHT22;13153;52.316;21.166;2022-09-13T14:49:43;16.80;99.90
25208;DHT22;13153;52.316;21.166;2022-09-13T14:52:28;16.70;99.90
25208;DHT22;13153;52.316;21.166;2022-09-13T14:55:01;16.70;99.90
25208;DHT22;13153;52.316;21.166;2022-09-13T14:57:39;16.70;99.90
25208;DHT22;13153;52.316;21.166;2022-09-13T15:00:17;16.70;99.90
25208;DHT22;13153;52.316;21.166;2022-09-13T15:02:57;16.70;99.90
25208;DHT22;13153;52.316;21.166;2022-09-13T15:05:30;16.70;99.90
25208;DHT22;13153;52.316;21.166;2022-09-13T15:07:57;16.70;99.90
25208;DHT22;13153;52.316;21.166;2022-09-13T15:10:27;16.60;99.90
25208;DHT22;13153;52.316;21.166;2022-09-13T15:15:30;16.60;99.90
25208;DHT22;13153;52.316;21.166;2022-09-13T15:17:58;16.60;99.90
25208;DHT22;13153;52.316;21.166;2022-09-13T15:20:51;16.60;99.90
25208;DHT22;13153;52.316;21.166;2022-09-13T15:26:04;16.50;99.90
25208;DHT22;13153;52.316;21.166;2022-09-13T15:28:55;16.50;99.90
25208;DHT22;13153;52.316;21.166;2022-09-13T15:31:29;16.50;99.90
25208;DHT22;13153;52.316;21.166;2022-09-13T15:36:43;16.50;99.90
25208;DHT22;13153;52.316;21.166;2022-09-13T15:39:18;16.50;99.90
25208;DHT22;13153;52.316;21.166;2022-09-13T15:41:53;16.50;99.90
25208;DHT22;13153;52.316;21.166;2022-09-13T15:44:19;16.50;99.90
25208;DHT22;13153;52.316;21.166;2022-09-13T15:46:52;16.50;99.90
25208;DHT22;13153;52.316;21.166;2022-09-13T15:49:24;16.50;99.90
25208;DHT22;13153;52.316;21.166;2022-09-13T15:52:01;16.50;99.90
25208;DHT22;13153;52.316;21.166;2022-09-13T15:54:39;16.40;99.90
25208;DHT22;13153;52.316;21.166;2022-09-13T15:57:08;16.50;99.90
25208;DHT22;13153;52.316;21.166;2022-09-13T15:59:43;16.50;99.90
25208;DHT22;13153;52.316;21.166;2022-09-13T16:02:30;16.40;99.90
25208;DHT22;13153;52.316;21.166;2022-09-13T16:04:57;16.40;99.90
25208;DHT22;13153;52.316;21.166;2022-09-13T16:07:24;16.40;99.90
25208;DHT22;13153;52.316;21.166;2022-09-13T16:09:51;16.40;99.90
25208;DHT22;13153;52.316;21.166;2022-09-13T16:12:18;16.40;99.90
25208;DHT22;13153;52.316;21.166;2022-09-13T16:14:46;16.40;99.90
25208;DHT22;13153;52.316;21.166;2022-09-13T16:17:20;16.40;99.90
25208;DHT22;13153;52.316;21.166;2022-09-13T16:19:49;16.30;99.90
25208;DHT22;13153;52.316;21.166;2022-09-13T16:22:15;16.30;99.90
25208;DHT22;13153;52.316;21.166;2022-09-13T16:24:41;16.30;99.90
25208;DHT22;13153;52.316;21.166;2022-09-13T16:27:12;16.30;99.90
25208;DHT22;13153;52.316;21.166;2022-09-13T16:29:40;16.30;99.90
25208;DHT22;13153;52.316;21.166;2022-09-13T16:32:05;16.20;99.90
25208;DHT22;13153;52.316;21.166;2022-09-13T16:34:31;16.20;99.90
25208;DHT22;13153;52.316;21.166;2022-09-13T16:36:57;16.20;99.90
25208;DHT22;13153;52.316;21.166;2022-09-13T16:39:23;16.20;99.90
25208;DHT22;13153;52.316;21.166;2022-09-13T16:41:49;16.10;99.90
25208;DHT22;13153;52.316;21.166;2022-09-13T16:44:15;16.10;99.90
25208;DHT22;13153;52.316;21.166;2022-09-13T16:46:41;16.10;99.90
25208;DHT22;13153;52.316;21.166;2022-09-13T16:49:07;16.00;99.90
25208;DHT22;13153;52.316;21.166;2022-09-13T16:51:33;16.00;99.90
25208;DHT22;13153;52.316;21.166;2022-09-13T16:53:59;16.00;99.90
25208;DHT22;13153;52.316;21.166;2022-09-13T16:56:25;16.00;99.90
25208;DHT22;13153;52.316;21.166;2022-09-13T16:58:52;16.00;99.90
25208;DHT22;13153;52.316;21.166;2022-09-13T17:01:22;16.00;99.90
25208;DHT22;13153;52.316;21.166;2022-09-13T17:03:49;16.00;99.90
25208;DHT22;13153;52.316;21.166;2022-09-13T17:06:17;16.00;99.90
25208;DHT22;13153;52.316;21.166;2022-09-13T17:08:49;15.90;99.90
25208;DHT22;13153;52.316;21.166;2022-09-13T17:11:19;15.90;99.90
25208;DHT22;13153;52.316;21.166;2022-09-13T17:13:46;15.80;99.90
25208;DHT22;13153;52.316;21.166;2022-09-13T17:16:28;15.90;99.90
25208;DHT22;13153;52.316;21.166;2022-09-13T17:18:57;15.90;99.90
25208;DHT22;13153;52.316;21.166;2022-09-13T17:21:25;15.90;99.90
25208;DHT22;13153;52.316;21.166;2022-09-13T17:23:52;15.80;99.90
25208;DHT22;13153;52.316;21.166;2022-09-13T17:26:19;15.80;99.90
25208;DHT22;13153;52.316;21.166;2022-09-13T17:28:45;15.90;99.90
25208;DHT22;13153;52.316;21.166;2022-09-13T17:31:11;15.90;99.90
25208;DHT22;13153;52.316;21.166;2022-09-13T17:33:37;15.80;99.90
25208;DHT22;13153;52.316;21.166;2022-09-13T17:36:07;15.90;99.90
25208;DHT22;13153;52.316;21.166;2022-09-13T17:38:35;15.80;99.90
25208;DHT22;13153;52.316;21.166;2022-09-13T17:41:07;15.80;99.90
25208;DHT22;13153;52.316;21.166;2022-09-13T17:43:36;15.80;99.90
25208;DHT22;13153;52.316;21.166;2022-09-13T17:46:09;15.80;99.90
25208;DHT22;13153;52.316;21.166;2022-09-13T17:48:40;15.80;99.90
25208;DHT22;13153;52.316;21.166;2022-09-13T17:51:10;15.80;99.90
25208;DHT22;13153;52.316;21.166;2022-09-13T17:53:40;15.80;99.90
25208;DHT22;13153;52.316;21.166;2022-09-13T17:56:08;15.80;99.90
25208;DHT22;13153;52.316;21.166;2022-09-13T17:58:34;15.80;99.90
25208;DHT22;13153;52.316;21.166;2022-09-13T18:01:06;15.80;99.90
25208;DHT22;13153;52.316;21.166;2022-09-13T18:03:33;15.80;99.90
25208;DHT22;13153;52.316;21.166;2022-09-13T18:06:02;15.80;99.90
25208;DHT22;13153;52.316;21.166;2022-09-13T18:08:30;15.80;99.90
25208;DHT22;13153;52.316;21.166;2022-09-13T18:11:17;15.80;99.90
25208;DHT22;13153;52.316;21.166;2022-09-13T18:13:43;15.80;99.90
25208;DHT22;13153;52.316;21.166;2022-09-13T18:16:15;15.80;99.90
25208;DHT22;13153;52.316;21.166;2022-09-13T18:18:43;15.80;99.90
25208;DHT22;13153;52.316;21.166;2022-09-13T18:21:14;15.80;99.90
25208;DHT22;13153;52.316;21.166;2022-09-13T18:23:44;15.70;99.90
25208;DHT22;13153;52.316;21.166;2022-09-13T18:26:13;15.80;99.90
25208;DHT22;13153;52.316;21.166;2022-09-13T18:28:41;15.80;99.90
25208;DHT22;13153;52.316;21.166;2022-09-13T18:31:16;15.70;99.90
25208;DHT22;13153;52.316;21.166;2022-09-13T18:33:43;15.70;99.90
25208;DHT22;13153;52.316;21.166;2022-09-13T18:36:15;15.70;99.90
25208;DHT22;13153;52.316;21.166;2022-09-13T18:38:47;15.70;99.90
25208;DHT22;13153;52.316;21.166;2022-09-13T18:41:22;15.80;99.90
25208;DHT22;13153;52.316;21.166;2022-09-13T18:43:51;15.80;99.90
25208;DHT22;13153;52.316;21.166;2022-09-13T18:46:21;15.70;99.90
25208;DHT22;13153;52.316;21.166;2022-09-13T18:48:50;15.70;99.90
25208;DHT22;13153;52.316;21.166;2022-09-13T18:51:23;15.70;99.90
25208;DHT22;13153;52.316;21.166;2022-09-13T18:54:14;15.70;99.90
25208;DHT22;13153;52.316;21.166;2022-09-13T18:56:43;15.70;99.90